sensor_id;sensor_type;location;lat;lon;timestamp;pressure;altitude;pressure_sealevel;temperature;humidity
46642;BME280;32370;41.864;-88.124;2023-02-19T00:01:20;99214.51;;;3.91;64.91
46642;BME280;32370;41.864;-88.124;2023-02-19T00:03:51;99207.80;;;4.23;65.20
46642;BME280;32370;41.864;-88.124;2023-02-19T00:06:20;99207.48;;;3.90;64.91
46642;BME280;32370;41.864;-88.124;2023-02-19T00:08:49;99197.26;;;4.01;65.09
46642;BME280;32370;41.864;-88.124;2023-02-19T00:11:19;99194.29;;;4.08;64.48
46642;BME280;32370;41.864;-88.124;2023-02-19T00:13:50;99188.29;;;4.02;64.78
46642;BME280;32370;41.864;-88.124;2023-02-19T00:16:21;99178.65;;;3.84;65.66
46642;BME280;32370;41.864;-88.124;2023-02-19T00:18:51;99167.96;;;4.14;65.02
46642;BME280;32370;41.864;-88.124;2023-02-19T00:21:19;99169.31;;;4.16;64.77
46642;BME280;32370;41.864;-88.124;2023-02-19T00:23:50;99163.58;;;4.09;64.91
46642;BME280;32370;41.864;-88.124;2023-02-19T00:26:20;99159.64;;;3.74;65.46
46642;BME280;32370;41.864;-88.124;2023-02-19T00:28:49;99162.12;;;3.63;65.69
46642;BME280;32370;41.864;-88.124;2023-02-19T00:31:20;99157.58;;;3.84;65.17
46642;BME280;32370;41.864;-88.124;2023-02-19T00:33:50;99163.26;;;3.87;65.12
46642;BME280;32370;41.864;-88.124;2023-02-19T00:36:20;99166.23;;;3.79;65.61
46642;BME280;32370;41.864;-88.124;2023-02-19T00:38:48;99167.26;;;4.07;65.34
46642;BME280;32370;41.864;-88.124;2023-02-19T00:41:18;99163.31;;;3.90;65.95
46642;BME280;32370;41.864;-88.124;2023-02-19T00:43:48;99169.31;;;3.68;65.86
46642;BME280;32370;41.864;-88.124;2023-02-19T00:46:18;99171.58;;;3.66;66.08
46642;BME280;32370;41.864;-88.124;2023-02-19T00:48:47;99169.03;;;3.59;66.15
46642;BME280;32370;41.864;-88.124;2023-02-19T00:51:15;99164.33;;;3.82;66.67
46642;BME280;32370;41.864;-88.124;2023-02-19T00:53:43;99163.62;;;3.78;66.70
46642;BME280;32370;41.864;-88.124;2023-02-19T00:56:12;99163.30;;;3.82;66.82
46642;BME280;32370;41.864;-88.124;2023-02-19T00:58:40;99169.57;;;3.83;66.71
46642;BME280;32370;41.864;-88.124;2023-02-19T01:01:09;99174.66;;;3.91;66.51
46642;BME280;32370;41.864;-88.124;2023-02-19T01:03:38;99168.81;;;3.50;66.48
46642;BME280;32370;41.864;-88.124;2023-02-19T01:06:09;99171.03;;;3.52;66.40
46642;BME280;32370;41.864;-88.124;2023-02-19T01:08:38;99180.50;;;4.07;65.88
46642;BME280;32370;41.864;-88.124;2023-02-19T01:11:08;99168.76;;;3.79;66.37
46642;BME280;32370;41.864;-88.124;2023-02-19T01:13:37;99169.73;;;3.80;66.17
46642;BME280;32370;41.864;-88.124;2023-02-19T01:16:07;99166.76;;;3.74;66.55
46642;BME280;32370;41.864;-88.124;2023-02-19T01:18:36;99163.84;;;3.58;66.20
46642;BME280;32370;41.864;-88.124;2023-02-19T01:21:05;99167.92;;;3.53;66.82
46642;BME280;32370;41.864;-88.124;2023-02-19T01:23:34;99165.76;;;3.49;67.30
46642;BME280;32370;41.864;-88.124;2023-02-19T01:26:04;99169.94;;;3.92;66.91
46642;BME280;32370;41.864;-88.124;2023-02-19T01:28:32;99176.37;;;3.75;65.96
46642;BME280;32370;41.864;-88.124;2023-02-19T01:31:02;99176.54;;;3.78;65.77
46642;BME280;32370;41.864;-88.124;2023-02-19T01:33:31;99179.29;;;3.74;65.62
46642;BME280;32370;41.864;-88.124;2023-02-19T01:36:01;99181.51;;;3.75;65.58
46642;BME280;32370;41.864;-88.124;2023-02-19T01:38:30;99182.32;;;3.74;65.44
46642;BME280;32370;41.864;-88.124;2023-02-19T01:40:59;99191.18;;;3.50;65.39
46642;BME280;32370;41.864;-88.124;2023-02-19T01:43:29;99193.38;;;3.67;65.23
46642;BME280;32370;41.864;-88.124;2023-02-19T01:45:58;99196.04;;;3.76;65.03
46642;BME280;32370;41.864;-88.124;2023-02-19T01:48:28;99194.61;;;3.53;65.42
46642;BME280;32370;41.864;-88.124;2023-02-19T01:51:04;99189.26;;;3.56;65.47
46642;BME280;32370;41.864;-88.124;2023-02-19T01:53:36;99184.67;;;3.54;64.93
46642;BME280;32370;41.864;-88.124;2023-02-19T01:56:06;99171.67;;;3.73;64.47
46642;BME280;32370;41.864;-88.124;2023-02-19T01:58:36;99172.36;;;3.58;64.48
46642;BME280;32370;41.864;-88.124;2023-02-19T02:01:05;99163.89;;;4.18;64.43
46642;BME280;32370;41.864;-88.124;2023-02-19T02:03:35;99167.39;;;3.63;64.39
46642;BME280;32370;41.864;-88.124;2023-02-19T02:06:08;99171.44;;;4.06;64.56
46642;BME280;32370;41.864;-88.124;2023-02-19T02:08:39;99166.25;;;4.01;64.75
46642;BME280;32370;41.864;-88.124;2023-02-19T02:11:08;99164.45;;;3.42;64.90
46642;BME280;32370;41.864;-88.124;2023-02-19T02:13:36;99166.86;;;3.76;65.07
46642;BME280;32370;41.864;-88.124;2023-02-19T02:16:15;99153.49;;;3.61;65.57
46642;BME280;32370;41.864;-88.124;2023-02-19T02:18:54;99150.84;;;3.32;65.80
46642;BME280;32370;41.864;-88.124;2023-02-19T02:21:39;99157.19;;;3.47;65.46
46642;BME280;32370;41.864;-88.124;2023-02-19T02:25:59;99162.51;;;4.06;65.54
46642;BME280;32370;41.864;-88.124;2023-02-19T02:28:57;99158.86;;;3.47;65.23
46642;BME280;32370;41.864;-88.124;2023-02-19T02:31:34;99141.85;;;3.16;65.59
46642;BME280;32370;41.864;-88.124;2023-02-19T02:34:11;99141.11;;;3.24;65.54
46642;BME280;32370;41.864;-88.124;2023-02-19T02:36:44;99135.19;;;3.32;65.03
46642;BME280;32370;41.864;-88.124;2023-02-19T02:39:18;99126.85;;;3.45;65.04
46642;BME280;32370;41.864;-88.124;2023-02-19T02:41:51;99114.32;;;3.43;65.06
46642;BME280;32370;41.864;-88.124;2023-02-19T02:44:22;99112.84;;;3.35;64.25
46642;BME280;32370;41.864;-88.124;2023-02-19T02:46:50;99111.85;;;3.04;64.60
46642;BME280;32370;41.864;-88.124;2023-02-19T02:49:20;99119.56;;;3.47;63.94
46642;BME280;32370;41.864;-88.124;2023-02-19T02:51:52;99120.44;;;3.57;63.47
46642;BME280;32370;41.864;-88.124;2023-02-19T02:54:25;99121.97;;;3.65;63.25
46642;BME280;32370;41.864;-88.124;2023-02-19T02:56:54;99117.90;;;3.01;63.44
46642;BME280;32370;41.864;-88.124;2023-02-19T02:59:24;99114.72;;;3.54;63.85
46642;BME280;32370;41.864;-88.124;2023-02-19T03:01:57;99107.81;;;2.75;64.04
46642;BME280;32370;41.864;-88.124;2023-02-19T03:04:32;99112.85;;;3.34;63.75
46642;BME280;32370;41.864;-88.124;2023-02-19T03:07:06;99104.74;;;3.30;63.95
46642;BME280;32370;41.864;-88.124;2023-02-19T03:09:38;99098.33;;;2.61;64.61
46642;BME280;32370;41.864;-88.124;2023-02-19T03:12:12;99091.42;;;3.34;64.12
46642;BME280;32370;41.864;-88.124;2023-02-19T03:14:44;99085.02;;;3.20;64.52
46642;BME280;32370;41.864;-88.124;2023-02-19T03:17:18;99087.46;;;3.23;64.40
46642;BME280;32370;41.864;-88.124;2023-02-19T03:19:56;99089.31;;;2.57;64.85
46642;BME280;32370;41.864;-88.124;2023-02-19T03:22:28;99099.24;;;2.78;64.82
46642;BME280;32370;41.864;-88.124;2023-02-19T03:25:03;99096.82;;;2.81;64.95
46642;BME280;32370;41.864;-88.124;2023-02-19T03:27:34;99085.13;;;3.20;64.59
46642;BME280;32370;41.864;-88.124;2023-02-19T03:30:10;99079.36;;;3.21;64.27
46642;BME280;32370;41.864;-88.124;2023-02-19T03:32:44;99059.52;;;3.01;64.70
46642;BME280;32370;41.864;-88.124;2023-02-19T03:35:17;99065.84;;;3.03;64.62
46642;BME280;32370;41.864;-88.124;2023-02-19T03:37:51;99063.46;;;3.04;64.58
46642;BME280;32370;41.864;-88.124;2023-02-19T03:40:21;99060.27;;;2.96;64.86
46642;BME280;32370;41.864;-88.124;2023-02-19T03:42:58;99040.15;;;2.47;65.45
46642;BME280;32370;41.864;-88.124;2023-02-19T03:45:34;99035.70;;;2.84;65.17
46642;BME280;32370;41.864;-88.124;2023-02-19T03:48:17;99035.04;;;2.80;65.31
46642;BME280;32370;41.864;-88.124;2023-02-19T03:50:53;99024.91;;;2.87;65.26
46642;BME280;32370;41.864;-88.124;2023-02-19T03:53:28;99022.24;;;2.75;65.19
46642;BME280;32370;41.864;-88.124;2023-02-19T03:56:04;99015.74;;;2.86;65.16
46642;BME280;32370;41.864;-88.124;2023-02-19T03:58:40;99011.81;;;2.92;64.63
46642;BME280;32370;41.864;-88.124;2023-02-19T04:01:16;99011.10;;;2.84;64.78
46642;BME280;32370;41.864;-88.124;2023-02-19T04:03:49;99003.53;;;2.74;65.28
46642;BME280;32370;41.864;-88.124;2023-02-19T04:06:23;99004.67;;;2.77;65.30
46642;BME280;32370;41.864;-88.124;2023-02-19T04:08:55;99004.08;;;2.53;65.32
46642;BME280;32370;41.864;-88.124;2023-02-19T04:11:27;98993.63;;;2.59;65.31
46642;BME280;32370;41.864;-88.124;2023-02-19T04:14:00;98980.52;;;2.28;65.71
46642;BME280;32370;41.864;-88.124;2023-02-19T04:16:30;98973.78;;;2.82;65.61
46642;BME280;32370;41.864;-88.124;2023-02-19T04:19:06;98975.09;;;2.69;65.09
46642;BME280;32370;41.864;-88.124;2023-02-19T04:21:36;98969.59;;;2.62;65.81
46642;BME280;32370;41.864;-88.124;2023-02-19T04:24:09;98982.69;;;2.63;65.28
46642;BME280;32370;41.864;-88.124;2023-02-19T04:26:38;98984.83;;;2.05;66.03
46642;BME280;32370;41.864;-88.124;2023-02-19T04:29:06;98986.40;;;2.33;66.11
46642;BME280;32370;41.864;-88.124;2023-02-19T04:31:36;98982.94;;;2.51;65.82
46642;BME280;32370;41.864;-88.124;2023-02-19T04:34:05;98980.45;;;2.49;65.83
46642;BME280;32370;41.864;-88.124;2023-02-19T04:36:33;98976.27;;;2.36;66.35
46642;BME280;32370;41.864;-88.124;2023-02-19T04:39:01;98968.71;;;2.30;66.08
46642;BME280;32370;41.864;-88.124;2023-02-19T04:41:29;98957.91;;;2.47;66.02
46642;BME280;32370;41.864;-88.124;2023-02-19T04:43:57;98954.38;;;2.35;65.51
46642;BME280;32370;41.864;-88.124;2023-02-19T04:46:25;98945.41;;;2.55;65.53
46642;BME280;32370;41.864;-88.124;2023-02-19T04:48:52;98946.68;;;2.40;65.98
46642;BME280;32370;41.864;-88.124;2023-02-19T04:51:21;98950.81;;;2.84;65.21
46642;BME280;32370;41.864;-88.124;2023-02-19T04:53:48;98948.39;;;2.88;64.95
46642;BME280;32370;41.864;-88.124;2023-02-19T04:56:17;98949.15;;;2.87;65.09
46642;BME280;32370;41.864;-88.124;2023-02-19T04:58:45;98942.85;;;2.41;65.47
46642;BME280;32370;41.864;-88.124;2023-02-19T05:01:13;98936.35;;;2.80;64.98
46642;BME280;32370;41.864;-88.124;2023-02-19T05:03:41;98933.23;;;2.62;64.49
46642;BME280;32370;41.864;-88.124;2023-02-19T05:06:11;98924.66;;;2.64;64.92
46642;BME280;32370;41.864;-88.124;2023-02-19T05:08:40;98940.25;;;2.63;64.84
46642;BME280;32370;41.864;-88.124;2023-02-19T05:11:10;98956.06;;;2.97;64.64
46642;BME280;32370;41.864;-88.124;2023-02-19T05:13:39;98949.58;;;2.70;64.76
46642;BME280;32370;41.864;-88.124;2023-02-19T05:16:11;98946.35;;;2.72;64.46
46642;BME280;32370;41.864;-88.124;2023-02-19T05:18:40;98940.56;;;2.79;64.93
46642;BME280;32370;41.864;-88.124;2023-02-19T05:21:09;98934.26;;;2.64;64.87
46642;BME280;32370;41.864;-88.124;2023-02-19T05:23:39;98934.03;;;2.50;64.75
46642;BME280;32370;41.864;-88.124;2023-02-19T05:26:08;98926.80;;;2.98;65.06
46642;BME280;32370;41.864;-88.124;2023-02-19T05:28:38;98910.62;;;2.49;65.17
46642;BME280;32370;41.864;-88.124;2023-02-19T05:31:07;98900.74;;;2.38;65.19
46642;BME280;32370;41.864;-88.124;2023-02-19T05:33:36;98906.31;;;2.53;65.30
46642;BME280;32370;41.864;-88.124;2023-02-19T05:36:06;98892.31;;;2.91;64.74
46642;BME280;32370;41.864;-88.124;2023-02-19T05:38:35;98884.87;;;2.94;64.69
46642;BME280;32370;41.864;-88.124;2023-02-19T05:41:08;98868.09;;;3.15;64.63
46642;BME280;32370;41.864;-88.124;2023-02-19T05:43:37;98902.99;;;2.74;64.68
46642;BME280;32370;41.864;-88.124;2023-02-19T05:46:06;98881.47;;;3.02;64.42
46642;BME280;32370;41.864;-88.124;2023-02-19T05:48:34;98894.36;;;2.91;64.74
46642;BME280;32370;41.864;-88.124;2023-02-19T05:51:03;98874.77;;;2.96;65.48
46642;BME280;32370;41.864;-88.124;2023-02-19T05:53:33;98840.10;;;2.57;65.32
46642;BME280;32370;41.864;-88.124;2023-02-19T05:56:01;98849.65;;;2.81;65.07
46642;BME280;32370;41.864;-88.124;2023-02-19T05:58:29;98846.41;;;2.54;64.84
46642;BME280;32370;41.864;-88.124;2023-02-19T06:00:58;98881.90;;;2.77;64.98
46642;BME280;32370;41.864;-88.124;2023-02-19T06:03:27;98892.36;;;2.91;65.06
46642;BME280;32370;41.864;-88.124;2023-02-19T06:05:55;98905.47;;;2.97;65.04
46642;BME280;32370;41.864;-88.124;2023-02-19T06:08:22;98852.67;;;2.45;64.90
46642;BME280;32370;41.864;-88.124;2023-02-19T06:10:50;98848.29;;;2.28;65.58
46642;BME280;32370;41.864;-88.124;2023-02-19T06:13:18;98858.06;;;2.91;64.94
46642;BME280;32370;41.864;-88.124;2023-02-19T06:15:46;98842.53;;;2.75;65.30
46642;BME280;32370;41.864;-88.124;2023-02-19T06:18:14;98841.61;;;2.65;65.69
46642;BME280;32370;41.864;-88.124;2023-02-19T06:20:42;98810.11;;;2.80;65.36
46642;BME280;32370;41.864;-88.124;2023-02-19T06:23:10;98834.44;;;2.84;65.29
46642;BME280;32370;41.864;-88.124;2023-02-19T06:25:38;98824.94;;;2.53;66.02
46642;BME280;32370;41.864;-88.124;2023-02-19T06:28:06;98839.18;;;2.77;65.49
46642;BME280;32370;41.864;-88.124;2023-02-19T06:30:34;98844.90;;;2.81;66.07
46642;BME280;32370;41.864;-88.124;2023-02-19T06:33:02;98829.09;;;2.69;66.37
46642;BME280;32370;41.864;-88.124;2023-02-19T06:35:30;98836.21;;;2.50;66.64
46642;BME280;32370;41.864;-88.124;2023-02-19T06:37:57;98846.94;;;2.50;66.33
46642;BME280;32370;41.864;-88.124;2023-02-19T06:40:25;98848.40;;;2.62;66.14
46642;BME280;32370;41.864;-88.124;2023-02-19T06:42:53;98835.89;;;2.80;66.21
46642;BME280;32370;41.864;-88.124;2023-02-19T06:45:21;98821.49;;;2.63;66.58
46642;BME280;32370;41.864;-88.124;2023-02-19T06:47:49;98831.20;;;2.48;66.59
46642;BME280;32370;41.864;-88.124;2023-02-19T06:50:17;98809.14;;;2.70;66.66
46642;BME280;32370;41.864;-88.124;2023-02-19T06:52:45;98816.37;;;2.98;66.63
46642;BME280;32370;41.864;-88.124;2023-02-19T06:55:13;98815.56;;;2.56;66.90
46642;BME280;32370;41.864;-88.124;2023-02-19T06:57:41;98796.80;;;2.40;67.18
46642;BME280;32370;41.864;-88.124;2023-02-19T07:00:10;98779.49;;;2.36;67.36
46642;BME280;32370;41.864;-88.124;2023-02-19T07:02:38;98783.91;;;2.61;66.99
46642;BME280;32370;41.864;-88.124;2023-02-19T07:05:06;98810.43;;;2.53;67.68
46642;BME280;32370;41.864;-88.124;2023-02-19T07:07:34;98819.55;;;2.85;67.60
46642;BME280;32370;41.864;-88.124;2023-02-19T07:10:01;98842.34;;;2.50;67.89
46642;BME280;32370;41.864;-88.124;2023-02-19T07:12:29;98828.12;;;2.31;68.02
46642;BME280;32370;41.864;-88.124;2023-02-19T07:14:57;98818.26;;;2.90;67.75
46642;BME280;32370;41.864;-88.124;2023-02-19T07:17:25;98810.11;;;2.68;67.67
46642;BME280;32370;41.864;-88.124;2023-02-19T07:19:53;98818.63;;;2.79;68.37
46642;BME280;32370;41.864;-88.124;2023-02-19T07:22:21;98810.76;;;2.75;68.13
46642;BME280;32370;41.864;-88.124;2023-02-19T07:24:49;98804.29;;;2.49;68.52
46642;BME280;32370;41.864;-88.124;2023-02-19T07:27:17;98807.39;;;1.98;69.85
46642;BME280;32370;41.864;-88.124;2023-02-19T07:29:45;98815.71;;;2.22;69.13
46642;BME280;32370;41.864;-88.124;2023-02-19T07:32:13;98814.15;;;2.33;69.03
46642;BME280;32370;41.864;-88.124;2023-02-19T07:34:41;98809.24;;;2.24;69.31
46642;BME280;32370;41.864;-88.124;2023-02-19T07:37:10;98812.20;;;2.19;69.38
46642;BME280;32370;41.864;-88.124;2023-02-19T07:39:38;98802.72;;;2.27;69.55
46642;BME280;32370;41.864;-88.124;2023-02-19T07:42:06;98799.49;;;2.54;69.62
46642;BME280;32370;41.864;-88.124;2023-02-19T07:44:34;98802.45;;;2.18;70.13
46642;BME280;32370;41.864;-88.124;2023-02-19T07:47:02;98787.73;;;2.65;70.13
46642;BME280;32370;41.864;-88.124;2023-02-19T07:49:30;98786.65;;;2.39;70.27
46642;BME280;32370;41.864;-88.124;2023-02-19T07:51:58;98783.04;;;2.17;70.42
46642;BME280;32370;41.864;-88.124;2023-02-19T07:54:26;98769.73;;;2.42;70.51
46642;BME280;32370;41.864;-88.124;2023-02-19T07:57:00;98764.55;;;2.35;70.72
46642;BME280;32370;41.864;-88.124;2023-02-19T07:59:28;98752.10;;;2.34;70.64
46642;BME280;32370;41.864;-88.124;2023-02-19T08:01:56;98746.28;;;2.43;70.83
46642;BME280;32370;41.864;-88.124;2023-02-19T08:04:24;98729.20;;;2.28;71.38
46642;BME280;32370;41.864;-88.124;2023-02-19T08:06:52;98715.62;;;1.88;71.72
46642;BME280;32370;41.864;-88.124;2023-02-19T08:09:20;98726.77;;;1.78;72.17
46642;BME280;32370;41.864;-88.124;2023-02-19T08:11:48;98714.86;;;2.01;72.43
46642;BME280;32370;41.864;-88.124;2023-02-19T08:14:16;98709.58;;;2.35;71.62
46642;BME280;32370;41.864;-88.124;2023-02-19T08:16:48;98708.29;;;2.59;71.60
46642;BME280;32370;41.864;-88.124;2023-02-19T08:19:16;98697.83;;;2.44;72.01
46642;BME280;32370;41.864;-88.124;2023-02-19T08:21:44;98692.98;;;2.40;71.78
46642;BME280;32370;41.864;-88.124;2023-02-19T08:24:12;98695.67;;;2.45;71.56
46642;BME280;32370;41.864;-88.124;2023-02-19T08:26:40;98695.19;;;2.19;71.64
46642;BME280;32370;41.864;-88.124;2023-02-19T08:29:08;98681.66;;;2.17;71.52
46642;BME280;32370;41.864;-88.124;2023-02-19T08:31:36;98679.51;;;2.09;72.06
46642;BME280;32370;41.864;-88.124;2023-02-19T08:34:05;98681.45;;;2.06;72.38
46642;BME280;32370;41.864;-88.124;2023-02-19T08:36:33;98675.15;;;2.25;72.28
46642;BME280;32370;41.864;-88.124;2023-02-19T08:39:03;98667.54;;;2.30;72.39
46642;BME280;32370;41.864;-88.124;2023-02-19T08:41:31;98652.72;;;2.33;72.19
46642;BME280;32370;41.864;-88.124;2023-02-19T08:43:59;98644.18;;;2.31;72.01
46642;BME280;32370;41.864;-88.124;2023-02-19T08:46:27;98635.70;;;2.21;72.43
46642;BME280;32370;41.864;-88.124;2023-02-19T08:48:55;98620.87;;;2.10;72.36
46642;BME280;32370;41.864;-88.124;2023-02-19T08:51:22;98607.90;;;1.99;72.80
46642;BME280;32370;41.864;-88.124;2023-02-19T08:53:50;98609.67;;;2.04;72.83
46642;BME280;32370;41.864;-88.124;2023-02-19T08:56:18;98592.67;;;2.18;72.16
46642;BME280;32370;41.864;-88.124;2023-02-19T08:58:46;98594.87;;;2.49;71.56
46642;BME280;32370;41.864;-88.124;2023-02-19T09:01:16;98607.52;;;2.36;71.28
46642;BME280;32370;41.864;-88.124;2023-02-19T09:03:44;98655.34;;;2.30;71.39
46642;BME280;32370;41.864;-88.124;2023-02-19T09:06:15;98621.53;;;2.61;71.50
46642;BME280;32370;41.864;-88.124;2023-02-19T09:08:43;98614.43;;;2.31;71.62
46642;BME280;32370;41.864;-88.124;2023-02-19T09:11:12;98618.89;;;2.35;71.29
46642;BME280;32370;41.864;-88.124;2023-02-19T09:13:41;98613.45;;;3.07;70.68
46642;BME280;32370;41.864;-88.124;2023-02-19T09:16:09;98619.89;;;2.74;70.97
46642;BME280;32370;41.864;-88.124;2023-02-19T09:18:37;98599.02;;;2.71;70.57
46642;BME280;32370;41.864;-88.124;2023-02-19T09:21:05;98619.72;;;2.54;71.01
46642;BME280;32370;41.864;-88.124;2023-02-19T09:23:35;98609.39;;;2.65;70.97
46642;BME280;32370;41.864;-88.124;2023-02-19T09:26:05;98606.79;;;2.71;71.05
46642;BME280;32370;41.864;-88.124;2023-02-19T09:28:33;98600.43;;;2.47;71.80
46642;BME280;32370;41.864;-88.124;2023-02-19T09:31:03;98579.66;;;2.28;71.83
46642;BME280;32370;41.864;-88.124;2023-02-19T09:33:31;98590.03;;;2.47;71.84
46642;BME280;32370;41.864;-88.124;2023-02-19T09:35:59;98589.00;;;2.50;71.69
46642;BME280;32370;41.864;-88.124;2023-02-19T09:38:28;98571.03;;;2.33;71.98
46642;BME280;32370;41.864;-88.124;2023-02-19T09:40:58;98569.91;;;2.51;71.86
46642;BME280;32370;41.864;-88.124;2023-02-19T09:43:32;98567.25;;;2.36;72.18
46642;BME280;32370;41.864;-88.124;2023-02-19T09:46:03;98554.88;;;2.46;71.97
46642;BME280;32370;41.864;-88.124;2023-02-19T09:48:33;98549.05;;;2.47;71.92
46642;BME280;32370;41.864;-88.124;2023-02-19T09:51:01;98549.83;;;2.57;71.69
46642;BME280;32370;41.864;-88.124;2023-02-19T09:53:35;98530.15;;;2.58;71.78
46642;BME280;32370;41.864;-88.124;2023-02-19T09:56:07;98525.22;;;2.48;71.49
46642;BME280;32370;41.864;-88.124;2023-02-19T09:58:42;98529.62;;;2.36;72.39
46642;BME280;32370;41.864;-88.124;2023-02-19T10:01:12;98535.16;;;2.57;71.87
46642;BME280;32370;41.864;-88.124;2023-02-19T10:03:43;98523.73;;;2.13;72.20
46642;BME280;32370;41.864;-88.124;2023-02-19T10:06:16;98521.78;;;2.45;72.40
46642;BME280;32370;41.864;-88.124;2023-02-19T10:08:47;98525.34;;;2.42;72.32
46642;BME280;32370;41.864;-88.124;2023-02-19T10:11:15;98536.80;;;2.08;73.40
46642;BME280;32370;41.864;-88.124;2023-02-19T10:13:46;98530.92;;;2.12;73.57
46642;BME280;32370;41.864;-88.124;2023-02-19T10:16:19;98523.26;;;2.15;73.68
46642;BME280;32370;41.864;-88.124;2023-02-19T10:18:49;98525.18;;;2.21;73.61
46642;BME280;32370;41.864;-88.124;2023-02-19T10:21:18;98515.65;;;1.96;74.36
46642;BME280;32370;41.864;-88.124;2023-02-19T10:23:49;98496.86;;;2.35;74.14
46642;BME280;32370;41.864;-88.124;2023-02-19T10:26:18;98491.84;;;1.93;74.31
46642;BME280;32370;41.864;-88.124;2023-02-19T10:28:47;98494.74;;;2.39;74.11
46642;BME280;32370;41.864;-88.124;2023-02-19T10:31:20;98487.27;;;2.09;74.40
46642;BME280;32370;41.864;-88.124;2023-02-19T10:33:49;98483.05;;;2.18;74.14
46642;BME280;32370;41.864;-88.124;2023-02-19T10:36:25;98482.07;;;2.18;74.15
46642;BME280;32370;41.864;-88.124;2023-02-19T10:38:54;98490.45;;;2.53;74.13
46642;BME280;32370;41.864;-88.124;2023-02-19T10:41:25;98493.93;;;2.36;73.98
46642;BME280;32370;41.864;-88.124;2023-02-19T10:43:55;98501.89;;;2.43;74.01
46642;BME280;32370;41.864;-88.124;2023-02-19T10:46:28;98500.94;;;2.35;74.29
46642;BME280;32370;41.864;-88.124;2023-02-19T10:48:58;98498.01;;;2.23;74.84
46642;BME280;32370;41.864;-88.124;2023-02-19T10:51:32;98490.88;;;2.30;74.77
46642;BME280;32370;41.864;-88.124;2023-02-19T10:54:06;98491.35;;;2.34;74.57
46642;BME280;32370;41.864;-88.124;2023-02-19T10:56:41;98488.80;;;2.56;74.18
46642;BME280;32370;41.864;-88.124;2023-02-19T10:59:24;98481.91;;;2.51;74.37
46642;BME280;32370;41.864;-88.124;2023-02-19T11:01:54;98477.44;;;2.50;74.51
46642;BME280;32370;41.864;-88.124;2023-02-19T11:04:24;98487.78;;;2.76;74.38
46642;BME280;32370;41.864;-88.124;2023-02-19T11:06:52;98485.34;;;2.43;74.82
46642;BME280;32370;41.864;-88.124;2023-02-19T11:09:26;98485.64;;;2.33;75.13
46642;BME280;32370;41.864;-88.124;2023-02-19T11:11:56;98487.78;;;2.42;75.83
46642;BME280;32370;41.864;-88.124;2023-02-19T11:14:25;98481.77;;;2.11;76.42
46642;BME280;32370;41.864;-88.124;2023-02-19T11:16:56;98476.30;;;2.02;76.52
46642;BME280;32370;41.864;-88.124;2023-02-19T11:19:28;98465.76;;;2.50;76.11
46642;BME280;32370;41.864;-88.124;2023-02-19T11:21:58;98465.66;;;2.12;76.11
46642;BME280;32370;41.864;-88.124;2023-02-19T11:24:31;98465.69;;;2.51;75.55
46642;BME280;32370;41.864;-88.124;2023-02-19T11:27:02;98466.42;;;2.55;75.18
46642;BME280;32370;41.864;-88.124;2023-02-19T11:29:30;98471.59;;;2.70;74.97
46642;BME280;32370;41.864;-88.124;2023-02-19T11:32:21;98463.03;;;2.40;75.64
46642;BME280;32370;41.864;-88.124;2023-02-19T11:34:50;98465.53;;;2.49;75.38
46642;BME280;32370;41.864;-88.124;2023-02-19T11:37:20;98467.16;;;1.97;75.45
46642;BME280;32370;41.864;-88.124;2023-02-19T11:39:50;98459.19;;;2.17;75.30
46642;BME280;32370;41.864;-88.124;2023-02-19T11:42:37;98465.35;;;2.53;75.41
46642;BME280;32370;41.864;-88.124;2023-02-19T11:45:17;98459.94;;;2.45;75.01
46642;BME280;32370;41.864;-88.124;2023-02-19T11:48:01;98459.62;;;2.59;75.17
46642;BME280;32370;41.864;-88.124;2023-02-19T11:50:45;98462.31;;;2.33;75.17
46642;BME280;32370;41.864;-88.124;2023-02-19T11:53:24;98456.57;;;2.37;75.90
46642;BME280;32370;41.864;-88.124;2023-02-19T11:56:07;98457.77;;;2.32;75.58
46642;BME280;32370;41.864;-88.124;2023-02-19T11:58:51;98464.47;;;2.43;75.70
46642;BME280;32370;41.864;-88.124;2023-02-19T12:01:29;98466.96;;;2.24;76.13
46642;BME280;32370;41.864;-88.124;2023-02-19T12:04:47;98466.89;;;2.46;75.83
46642;BME280;32370;41.864;-88.124;2023-02-19T12:07:34;98461.71;;;2.17;76.53
46642;BME280;32370;41.864;-88.124;2023-02-19T12:10:12;98457.38;;;2.66;76.61
46642;BME280;32370;41.864;-88.124;2023-02-19T12:12:55;98450.57;;;2.26;76.48
46642;BME280;32370;41.864;-88.124;2023-02-19T12:15:36;98442.97;;;2.25;76.78
46642;BME280;32370;41.864;-88.124;2023-02-19T12:18:22;98437.35;;;2.31;76.84
46642;BME280;32370;41.864;-88.124;2023-02-19T12:20:59;98425.90;;;2.36;76.74
46642;BME280;32370;41.864;-88.124;2023-02-19T12:24:00;98433.55;;;1.95;77.18
46642;BME280;32370;41.864;-88.124;2023-02-19T12:26:38;98427.54;;;2.45;76.54
46642;BME280;32370;41.864;-88.124;2023-02-19T12:29:25;98426.71;;;2.21;77.02
46642;BME280;32370;41.864;-88.124;2023-02-19T12:32:26;98422.31;;;2.32;76.89
46642;BME280;32370;41.864;-88.124;2023-02-19T12:35:20;98426.65;;;2.50;76.49
46642;BME280;32370;41.864;-88.124;2023-02-19T12:37:57;98429.52;;;2.21;77.14
46642;BME280;32370;41.864;-88.124;2023-02-19T12:40:41;98424.83;;;2.33;76.63
46642;BME280;32370;41.864;-88.124;2023-02-19T12:43:17;98423.74;;;2.24;76.79
46642;BME280;32370;41.864;-88.124;2023-02-19T12:45:51;98424.02;;;1.94;76.71
46642;BME280;32370;41.864;-88.124;2023-02-19T12:48:28;98422.88;;;1.92;77.47
46642;BME280;32370;41.864;-88.124;2023-02-19T12:51:03;98408.08;;;2.03;77.42
46642;BME280;32370;41.864;-88.124;2023-02-19T12:53:39;98407.07;;;1.83;78.18
46642;BME280;32370;41.864;-88.124;2023-02-19T12:56:14;98410.03;;;1.98;77.90
46642;BME280;32370;41.864;-88.124;2023-02-19T12:58:47;98418.17;;;1.82;78.28
46642;BME280;32370;41.864;-88.124;2023-02-19T13:01:22;98417.40;;;1.42;78.46
46642;BME280;32370;41.864;-88.124;2023-02-19T13:04:04;98414.63;;;1.48;78.68
46642;BME280;32370;41.864;-88.124;2023-02-19T13:06:43;98412.92;;;1.69;78.95
46642;BME280;32370;41.864;-88.124;2023-02-19T13:09:14;98412.22;;;1.93;78.61
46642;BME280;32370;41.864;-88.124;2023-02-19T13:11:48;98408.44;;;1.54;79.36
46642;BME280;32370;41.864;-88.124;2023-02-19T13:14:23;98411.18;;;1.99;78.96